createdAt,value
2022-10-23T00:04:52.153Z,11.28
2022-10-23T00:09:53.756Z,11.29
2022-10-23T00:14:55.173Z,11.30
2022-10-23T00:19:56.590Z,11.30
2022-10-23T00:24:58.036Z,11.30
2022-10-23T00:29:59.490Z,11.27
2022-10-23T00:35:00.919Z,11.24
2022-10-23T00:40:02.398Z,11.18
2022-10-23T00:45:14.953Z,11.13
2022-10-23T00:50:17.026Z,11.06
2022-10-23T00:55:21.376Z,11.03
2022-10-23T01:00:29.145Z,11.01
2022-10-23T01:05:37.612Z,10.97
2022-10-23T01:10:50.093Z,10.94
2022-10-23T01:16:05.235Z,10.92
2022-10-23T01:21:15.278Z,10.94
2022-10-23T01:26:34.986Z,10.93
2022-10-23T01:31:49.172Z,10.94
2022-10-23T01:36:53.079Z,10.96
2022-10-23T01:42:00.886Z,10.93
2022-10-23T01:47:04.723Z,10.84
2022-10-23T01:52:10.465Z,10.82
2022-10-23T01:57:16.183Z,10.81
2022-10-23T02:02:20.603Z,10.75
2022-10-23T02:07:22.379Z,10.72
2022-10-23T02:12:40.324Z,10.80
2022-10-23T02:18:03.703Z,10.78
2022-10-23T02:23:36.362Z,10.73
2022-10-23T02:28:43.495Z,10.75
2022-10-23T02:33:47.019Z,10.74
2022-10-23T02:38:48.468Z,10.78
2022-10-23T02:44:00.353Z,10.89
2022-10-23T02:49:19.004Z,10.96
2022-10-23T02:54:59.097Z,11.00
2022-10-23T03:00:05.805Z,10.96
2022-10-23T03:05:12.229Z,10.95
2022-10-23T03:10:14.461Z,11.00
2022-10-23T03:15:17.106Z,11.05
2022-10-23T03:20:18.536Z,11.09
2022-10-23T03:25:19.953Z,11.09
2022-10-23T03:30:21.461Z,11.15
2022-10-23T03:35:22.886Z,11.11
2022-10-23T03:40:24.318Z,11.04
2022-10-23T03:45:26.046Z,10.96
2022-10-23T03:50:27.444Z,10.92
2022-10-23T03:55:29.362Z,10.97
2022-10-23T04:00:30.891Z,11.08
2022-10-23T04:05:32.304Z,11.19
2022-10-23T04:10:33.721Z,11.31
2022-10-23T04:15:35.193Z,11.37
2022-10-23T04:20:36.578Z,11.41
2022-10-23T04:25:38.039Z,11.49
2022-10-23T04:30:39.491Z,11.53
2022-10-23T04:35:41.084Z,11.59
2022-10-23T04:40:42.506Z,11.59
2022-10-23T04:45:43.946Z,11.70
2022-10-23T04:50:54.833Z,11.82
2022-10-23T04:55:58.422Z,11.81
2022-10-23T05:00:59.958Z,11.72
2022-10-23T05:06:01.571Z,11.64
2022-10-23T05:11:03.137Z,11.50
2022-10-23T05:16:04.795Z,11.38
2022-10-23T05:21:14.639Z,11.31
2022-10-23T05:26:16.064Z,11.28
2022-10-23T05:31:19.459Z,11.33
2022-10-23T05:36:22.751Z,11.28
2022-10-23T05:41:24.295Z,11.17
2022-10-23T05:46:27.895Z,10.97
2022-10-23T05:51:29.335Z,10.82
2022-10-23T05:56:30.861Z,10.75
2022-10-23T06:01:32.386Z,10.72
2022-10-23T06:06:34.041Z,10.73
2022-10-23T06:11:35.533Z,10.76
2022-10-23T06:16:37.084Z,10.83
2022-10-23T06:21:41.649Z,10.89
2022-10-23T06:26:43.158Z,11.06
2022-10-23T06:31:44.655Z,11.23
2022-10-23T06:36:46.154Z,11.41
2022-10-23T06:41:47.652Z,11.51
2022-10-23T06:46:49.552Z,11.70
2022-10-23T06:51:51.063Z,11.96
2022-10-23T06:56:53.471Z,12.12
2022-10-23T07:07:01.529Z,12.79
2022-10-23T07:12:03.078Z,13.50
2022-10-23T07:17:04.588Z,13.76
2022-10-23T07:22:06.270Z,14.09
2022-10-23T07:27:08.004Z,14.19
2022-10-23T07:32:09.567Z,14.28
2022-10-23T07:37:11.086Z,14.48
2022-10-23T07:42:12.791Z,15.42
2022-10-23T07:47:14.545Z,16.37
2022-10-23T07:52:16.209Z,17.53
2022-10-23T07:57:17.907Z,18.17
2022-10-23T08:02:20.816Z,19.17
2022-10-23T08:07:22.474Z,19.98
2022-10-23T08:12:23.927Z,20.51
2022-10-23T08:17:27.631Z,20.81
2022-10-23T08:22:29.916Z,20.95
2022-10-23T08:27:31.822Z,21.64
2022-10-23T08:32:33.349Z,22.06
2022-10-23T08:37:34.858Z,22.13
2022-10-23T08:42:39.497Z,22.45
2022-10-23T08:47:55.799Z,23.50
2022-10-23T08:53:32.509Z,23.76
2022-10-23T08:58:45.926Z,23.72
2022-10-23T09:03:47.436Z,23.12
2022-10-23T09:09:27.140Z,22.07
2022-10-23T09:14:53.569Z,21.75
2022-10-23T09:20:18.683Z,21.90
2022-10-23T09:25:41.393Z,23.11
2022-10-23T09:30:43.348Z,24.55
2022-10-23T09:36:01.901Z,25.46
2022-10-23T09:41:16.072Z,25.36
2022-10-23T09:46:17.545Z,25.18
2022-10-23T09:51:21.433Z,25.58
2022-10-23T09:56:36.330Z,24.90
2022-10-23T10:01:53.572Z,26.18
2022-10-23T10:06:58.538Z,26.54
2022-10-23T10:12:25.230Z,26.03
2022-10-23T10:17:35.706Z,25.63
2022-10-23T10:22:58.397Z,24.80
2022-10-23T10:28:03.019Z,25.11
2022-10-23T10:33:22.042Z,23.85
2022-10-23T10:38:42.752Z,23.36
2022-10-23T10:43:58.695Z,24.08
2022-10-23T10:49:25.015Z,25.45
2022-10-23T10:54:26.471Z,27.43
2022-10-23T10:59:35.975Z,27.71
2022-10-23T11:05:08.358Z,25.92
2022-10-23T11:10:18.458Z,25.17
2022-10-23T11:15:38.202Z,25.02
2022-10-23T11:21:08.428Z,24.92
2022-10-23T11:26:20.324Z,24.98
2022-10-23T11:31:38.572Z,24.92
2022-10-23T11:36:53.896Z,25.00
2022-10-23T11:41:58.487Z,25.06
2022-10-23T11:47:05.913Z,24.86
2022-10-23T11:52:23.646Z,24.75
2022-10-23T11:57:25.183Z,24.54
2022-10-23T12:02:36.767Z,24.43
2022-10-23T12:07:41.320Z,23.68
2022-10-23T12:12:43.295Z,23.16
2022-10-23T12:17:46.755Z,23.30
2022-10-23T12:23:12.694Z,22.82
2022-10-23T12:28:42.905Z,22.53
2022-10-23T12:33:49.846Z,22.85
2022-10-23T12:38:51.363Z,22.93
2022-10-23T12:44:04.382Z,22.63
2022-10-23T12:49:20.711Z,22.45
2022-10-23T12:54:22.398Z,22.08
2022-10-23T12:59:51.458Z,22.23
2022-10-23T13:04:55.561Z,22.48
2022-10-23T13:09:59.127Z,22.62
2022-10-23T13:15:21.293Z,22.41
2022-10-23T13:20:28.323Z,22.38
2022-10-23T13:25:33.277Z,22.31
2022-10-23T13:30:40.213Z,22.36
2022-10-23T13:35:41.801Z,22.53
2022-10-23T13:40:43.427Z,22.74
2022-10-23T13:45:44.965Z,22.89
2022-10-23T13:50:46.816Z,22.89
2022-10-23T13:55:54.955Z,22.70
2022-10-23T14:00:59.531Z,22.61
2022-10-23T14:06:01.596Z,22.44
2022-10-23T14:11:03.186Z,22.20
2022-10-23T14:16:05.256Z,21.98
2022-10-23T14:21:07.902Z,21.87
2022-10-23T14:26:12.811Z,21.86
2022-10-23T14:31:16.741Z,21.89
2022-10-23T14:41:20.604Z,21.84
2022-10-23T14:46:24.151Z,21.74
2022-10-23T14:51:28.377Z,21.65
2022-10-23T14:56:33.212Z,21.59
2022-10-23T15:01:43.905Z,21.52
2022-10-23T15:06:48.817Z,21.46
2022-10-23T15:11:50.546Z,21.35
2022-10-23T15:16:52.154Z,21.31
2022-10-23T15:21:53.822Z,21.37
2022-10-23T15:26:55.405Z,21.37
2022-10-23T15:32:01.455Z,21.26
2022-10-23T15:37:03.538Z,21.01
2022-10-23T15:42:06.546Z,20.75
2022-10-23T15:47:08.071Z,20.50
2022-10-23T15:57:11.867Z,20.01
2022-10-23T16:02:13.536Z,19.80
2022-10-23T16:07:14.994Z,19.68
2022-10-23T16:12:17.200Z,19.63
2022-10-23T16:17:19.632Z,19.58
2022-10-23T16:22:21.152Z,19.45
2022-10-23T16:27:22.619Z,19.38
2022-10-23T16:32:24.313Z,19.31
2022-10-23T16:37:25.832Z,19.25
2022-10-23T16:42:28.188Z,19.18
2022-10-23T16:47:31.169Z,19.11
2022-10-23T16:52:33.292Z,19.10
2022-10-23T16:57:36.075Z,19.02
2022-10-23T17:02:37.784Z,18.91
2022-10-23T17:07:39.347Z,18.79
2022-10-23T17:12:40.761Z,18.68
2022-10-23T17:17:43.321Z,18.54
2022-10-23T17:22:44.912Z,18.45
2022-10-23T17:27:46.732Z,18.44
2022-10-23T17:32:48.232Z,18.35
2022-10-23T17:37:50.576Z,18.29
2022-10-23T17:42:52.022Z,18.02
2022-10-23T17:47:53.465Z,17.90
2022-10-23T17:52:54.963Z,17.83
2022-10-23T17:57:58.180Z,17.80
2022-10-23T18:02:59.707Z,17.82
2022-10-23T18:08:01.216Z,17.82
2022-10-23T18:13:02.689Z,17.76
2022-10-23T18:18:07.843Z,17.64
2022-10-23T18:23:09.355Z,17.51
2022-10-23T18:28:10.817Z,17.34
2022-10-23T18:33:12.335Z,17.09
2022-10-23T18:38:15.250Z,17.22
2022-10-23T18:43:31.253Z,17.38
2022-10-23T18:48:38.387Z,17.39
2022-10-23T18:53:39.889Z,17.28
2022-10-23T18:58:41.480Z,17.40
2022-10-23T19:03:43.047Z,17.46
2022-10-23T19:08:45.858Z,17.48
2022-10-23T19:13:47.465Z,17.47
2022-10-23T19:18:53.502Z,17.23
2022-10-23T19:23:55.120Z,17.03
2022-10-23T19:28:57.612Z,16.99
2022-10-23T19:33:59.187Z,17.05
2022-10-23T19:39:00.651Z,17.06
2022-10-23T19:44:02.058Z,17.08
2022-10-23T19:49:04.623Z,17.09
2022-10-23T19:54:06.336Z,17.06
2022-10-23T19:59:07.902Z,16.97
2022-10-23T20:04:09.371Z,16.92
2022-10-23T20:09:10.862Z,16.86
2022-10-23T20:14:12.594Z,16.86
2022-10-23T20:24:19.750Z,16.83
2022-10-23T20:29:22.130Z,16.82
2022-10-23T20:34:23.613Z,16.84
2022-10-23T20:39:26.851Z,16.82
2022-10-23T20:44:28.715Z,16.78
2022-10-23T20:49:30.291Z,16.82
2022-10-23T20:54:31.854Z,16.83
2022-10-23T20:59:34.092Z,16.80
2022-10-23T21:04:35.525Z,16.82
2022-10-23T21:09:38.001Z,16.84
2022-10-23T21:14:39.874Z,16.84
2022-10-23T21:19:41.355Z,16.81
2022-10-23T21:24:42.922Z,16.71
2022-10-23T21:29:44.348Z,16.68
2022-10-23T21:34:45.833Z,16.64
2022-10-23T21:39:47.351Z,16.63
2022-10-23T21:44:48.819Z,16.63
2022-10-23T21:49:50.277Z,16.63
2022-10-23T21:54:55.261Z,16.60
2022-10-23T21:59:56.755Z,16.50
2022-10-23T22:04:58.186Z,16.45
2022-10-23T22:09:59.679Z,16.34
2022-10-23T22:15:01.323Z,16.09
2022-10-23T22:20:02.939Z,15.83
2022-10-23T22:25:04.947Z,15.69
2022-10-23T22:30:06.863Z,15.61
2022-10-23T22:35:08.582Z,15.62
2022-10-23T22:40:10.646Z,15.61
2022-10-23T22:45:12.091Z,15.52
2022-10-23T22:50:13.586Z,15.49
2022-10-23T22:55:15.064Z,15.45
2022-10-23T23:00:17.039Z,15.42
2022-10-23T23:05:18.575Z,15.37
2022-10-23T23:10:20.055Z,15.30
2022-10-23T23:15:21.635Z,15.21
2022-10-23T23:20:23.109Z,15.13
2022-10-23T23:25:24.540Z,15.02
2022-10-23T23:30:26.304Z,14.96
2022-10-23T23:35:29.392Z,15.02
2022-10-23T23:40:30.825Z,15.04
2022-10-23T23:45:32.513Z,15.04
2022-10-23T23:50:33.948Z,15.09
2022-10-23T23:55:36.020Z,15.08
